createdAt,value
2022-12-01T00:01:10.209Z,49822.69
2022-12-01T00:03:37.416Z,49842.63
2022-12-01T00:06:11.327Z,49816.72
2022-12-01T00:08:38.623Z,49836.66
2022-12-01T00:11:10.350Z,49876.53
2022-12-01T00:13:37.778Z,49844.63
2022-12-01T00:16:30.733Z,49860.56
2022-12-01T00:18:57.507Z,49836.66
2022-12-01T00:21:25.701Z,49850.59
2022-12-01T00:23:55.160Z,49804.75
2022-12-01T00:26:22.978Z,49834.66
2022-12-01T00:28:54.094Z,49846.63
2022-12-01T00:31:21.463Z,49822.69
2022-12-01T00:33:49.492Z,49834.66
2022-12-01T00:36:16.174Z,49838.66
2022-12-01T00:38:43.023Z,49852.59
2022-12-01T00:41:09.785Z,49860.56
2022-12-01T00:43:36.469Z,49848.63
2022-12-01T00:46:03.717Z,49834.66
2022-12-01T00:48:30.956Z,49860.56
2022-12-01T00:50:57.674Z,49796.78
2022-12-01T00:53:24.711Z,49850.59
2022-12-01T00:55:53.962Z,49866.56
2022-12-01T00:58:21.311Z,49854.59
2022-12-01T01:00:47.970Z,49854.59
2022-12-01T01:03:14.674Z,49816.72
2022-12-01T01:05:42.972Z,49844.63
2022-12-01T01:08:11.415Z,49876.53
2022-12-01T01:10:42.524Z,49842.63
2022-12-01T01:13:09.666Z,49802.75
2022-12-01T01:15:36.964Z,49838.66
2022-12-01T01:18:05.435Z,49822.69
2022-12-01T01:20:32.317Z,49826.69
2022-12-01T01:22:59.164Z,49840.63
2022-12-01T01:25:25.786Z,49862.56
2022-12-01T01:27:52.492Z,49832.66
2022-12-01T01:30:19.692Z,49858.59
2022-12-01T01:32:46.270Z,49832.66
2022-12-01T01:35:12.902Z,49854.59
2022-12-01T01:37:39.841Z,49838.66
2022-12-01T01:40:07.245Z,49844.63
2022-12-01T01:42:33.901Z,49858.59
2022-12-01T01:45:00.634Z,49838.66
2022-12-01T01:47:35.987Z,49814.72
2022-12-01T01:50:09.866Z,49824.69
2022-12-01T01:52:40.013Z,49840.63
2022-12-01T01:55:08.069Z,49876.53
2022-12-01T01:57:35.321Z,49818.72
2022-12-01T02:00:08.007Z,49834.66
2022-12-01T02:02:44.155Z,49852.59
2022-12-01T02:05:21.280Z,49862.56
2022-12-01T02:07:49.110Z,49780.84
2022-12-01T02:10:22.519Z,49868.56
2022-12-01T02:12:55.155Z,49870.53
2022-12-01T02:15:48.929Z,49832.66
2022-12-01T02:18:52.230Z,49850.59
2022-12-01T02:21:21.893Z,49848.63
2022-12-01T02:24:10.080Z,49866.56
2022-12-01T02:26:50.578Z,49836.66
2022-12-01T02:29:38.299Z,49810.75
2022-12-01T02:32:13.455Z,49858.59
2022-12-01T02:34:59.007Z,49862.56
2022-12-01T02:37:40.359Z,49836.66
2022-12-01T02:40:32.994Z,49842.63
2022-12-01T02:43:03.760Z,49844.63
2022-12-01T02:45:45.816Z,49860.56
2022-12-01T02:48:19.411Z,49858.59
2022-12-01T02:50:46.686Z,49850.59
2022-12-01T02:53:17.328Z,49812.72
2022-12-01T02:55:55.271Z,49850.59
2022-12-01T02:58:22.631Z,49866.56
2022-12-01T03:01:02.509Z,49806.75
2022-12-01T03:03:45.112Z,49808.75
2022-12-01T03:06:24.195Z,49834.66
2022-12-01T03:09:09.486Z,49864.56
2022-12-01T03:11:47.989Z,49818.72
2022-12-01T03:14:38.726Z,49836.66
2022-12-01T03:17:11.052Z,49856.59
2022-12-01T03:19:48.488Z,49850.59
2022-12-01T03:22:54.171Z,49844.63
2022-12-01T03:25:24.496Z,49800.78
2022-12-01T03:28:20.178Z,49852.59
2022-12-01T03:30:46.456Z,49830.66
2022-12-01T03:33:22.423Z,49840.63
2022-12-01T03:35:55.856Z,49792.78
2022-12-01T03:38:26.014Z,49842.63
2022-12-01T03:40:58.235Z,49874.53
2022-12-01T03:43:31.466Z,49858.59
2022-12-01T03:46:17.789Z,49802.75
2022-12-01T03:48:44.520Z,49808.75
2022-12-01T03:51:18.147Z,49824.69
2022-12-01T03:53:51.723Z,49822.69
2022-12-01T03:56:22.306Z,49846.63
2022-12-01T03:58:52.668Z,49834.66
2022-12-01T04:01:20.785Z,49844.63
2022-12-01T04:03:47.622Z,49874.53
2022-12-01T04:06:15.183Z,49818.72
2022-12-01T04:08:41.785Z,49826.69
2022-12-01T04:11:32.254Z,49854.59
2022-12-01T04:13:59.548Z,49846.63
2022-12-01T04:16:26.251Z,49850.59
2022-12-01T04:18:52.916Z,49826.69
2022-12-01T04:21:19.492Z,49842.63
2022-12-01T04:24:01.314Z,49878.53
2022-12-01T04:26:34.156Z,49842.63
2022-12-01T04:29:02.175Z,49842.63
2022-12-01T04:31:28.785Z,49824.69
2022-12-01T04:33:56.049Z,49824.69
2022-12-01T04:36:24.345Z,49844.63
2022-12-01T04:38:51.366Z,49798.78
2022-12-01T04:41:18.173Z,49802.75
2022-12-01T04:43:45.045Z,49872.53
2022-12-01T04:46:12.053Z,49854.59
2022-12-01T04:48:39.799Z,49832.66
2022-12-01T04:51:08.319Z,49846.63
2022-12-01T04:53:36.350Z,49844.63
2022-12-01T04:56:03.504Z,49822.69
2022-12-01T04:58:32.121Z,49854.59
2022-12-01T05:01:07.586Z,49866.56
2022-12-01T05:03:43.578Z,49838.66
2022-12-01T05:06:13.659Z,49846.63
2022-12-01T05:08:40.942Z,49884.50
2022-12-01T05:11:08.533Z,49842.63
2022-12-01T05:13:37.668Z,49806.75
2022-12-01T05:16:09.316Z,49850.59
2022-12-01T05:18:36.463Z,49836.66
2022-12-01T05:21:04.907Z,49854.59
2022-12-01T05:23:33.851Z,49838.66
2022-12-01T05:26:01.883Z,49858.59
2022-12-01T05:28:29.254Z,49846.63
2022-12-01T05:30:56.602Z,49822.69
2022-12-01T05:33:24.767Z,49836.66
2022-12-01T05:35:52.072Z,49810.75
2022-12-01T05:38:19.263Z,49818.72
2022-12-01T05:40:53.786Z,49836.66
2022-12-01T05:43:28.284Z,49826.69
2022-12-01T05:45:56.139Z,49824.69
2022-12-01T05:48:22.851Z,49844.63
2022-12-01T05:50:49.449Z,49838.66
2022-12-01T05:53:16.059Z,49830.66
2022-12-01T05:55:42.847Z,49844.63
2022-12-01T05:58:10.118Z,49824.69
2022-12-01T06:00:42.279Z,49842.63
2022-12-01T06:03:12.181Z,49824.69
2022-12-01T06:05:38.796Z,49822.69
2022-12-01T06:08:05.580Z,49818.72
2022-12-01T06:10:32.202Z,49868.56
2022-12-01T06:12:58.808Z,49786.81
2022-12-01T06:15:25.909Z,49834.66
2022-12-01T06:17:52.611Z,49838.66
2022-12-01T06:20:19.355Z,49850.59
2022-12-01T06:22:45.935Z,49826.69
2022-12-01T06:25:12.584Z,49826.69
2022-12-01T06:27:39.649Z,49838.66
2022-12-01T06:30:06.973Z,49832.66
2022-12-01T06:32:33.804Z,49858.59
2022-12-01T06:35:00.480Z,49854.59
2022-12-01T06:37:28.096Z,49842.63
2022-12-01T06:39:54.719Z,49856.59
2022-12-01T06:42:21.447Z,49878.53
2022-12-01T06:44:48.116Z,49856.59
2022-12-01T06:47:15.869Z,49846.63
2022-12-01T06:49:42.653Z,49852.59
2022-12-01T06:52:10.097Z,49842.63
2022-12-01T06:54:37.658Z,49814.72
2022-12-01T06:57:05.012Z,49834.66
2022-12-01T06:59:32.005Z,49852.59
2022-12-01T07:01:59.159Z,49808.75
2022-12-01T07:04:26.055Z,49854.59
2022-12-01T07:06:52.795Z,49826.69
2022-12-01T07:09:19.384Z,49824.69
2022-12-01T07:11:46.064Z,49848.63
2022-12-01T07:14:23.926Z,49820.69
2022-12-01T07:16:51.164Z,49848.63
2022-12-01T07:19:18.283Z,49840.63
2022-12-01T07:21:45.092Z,49830.66
2022-12-01T07:24:14.842Z,49834.66
2022-12-01T07:26:42.557Z,49842.63
2022-12-01T07:29:10.748Z,49822.69
2022-12-01T07:31:38.304Z,49830.66
2022-12-01T07:34:05.872Z,49868.56
2022-12-01T07:36:32.676Z,49872.53
2022-12-01T07:39:00.196Z,49846.63
2022-12-01T07:41:26.803Z,49850.59
2022-12-01T07:43:55.356Z,49826.69
2022-12-01T07:46:24.865Z,49850.59
2022-12-01T07:48:52.950Z,49848.63
2022-12-01T07:51:20.771Z,49848.63
2022-12-01T07:53:49.353Z,49838.66
2022-12-01T07:56:16.591Z,49838.66
2022-12-01T07:58:43.592Z,49792.78
2022-12-01T08:01:12.952Z,49822.69
2022-12-01T08:03:40.514Z,49840.63
2022-12-01T08:06:08.390Z,49856.59
2022-12-01T08:08:37.843Z,49850.59
2022-12-01T08:11:26.768Z,49826.69
2022-12-01T08:13:53.985Z,49846.63
2022-12-01T08:16:22.720Z,49840.63
2022-12-01T08:18:50.222Z,49876.53
2022-12-01T08:21:19.529Z,49822.69
2022-12-01T08:23:47.809Z,49834.66
2022-12-01T08:26:17.152Z,49826.69
2022-12-01T08:28:44.553Z,49834.66
2022-12-01T08:31:24.635Z,49842.63
2022-12-01T08:33:52.167Z,49818.72
2022-12-01T08:36:20.596Z,49848.63
2022-12-01T08:38:50.006Z,49842.63
2022-12-01T08:41:17.103Z,49816.72
2022-12-01T08:44:01.093Z,49814.72
2022-12-01T08:46:32.287Z,49826.69
2022-12-01T08:48:59.064Z,49854.59
2022-12-01T08:51:26.599Z,49840.63
2022-12-01T08:53:55.625Z,49830.66
2022-12-01T08:56:25.919Z,49834.66
2022-12-01T08:58:54.311Z,49834.66
2022-12-01T09:01:21.914Z,49814.72
2022-12-01T09:03:48.947Z,49844.63
2022-12-01T09:06:17.678Z,49800.78
2022-12-01T09:08:44.409Z,49822.69
2022-12-01T09:11:14.298Z,49854.59
2022-12-01T09:13:42.354Z,49856.59
2022-12-01T09:16:11.824Z,49814.72
2022-12-01T09:18:38.908Z,49814.72
2022-12-01T09:21:16.706Z,49812.72
2022-12-01T09:23:43.800Z,49834.66
2022-12-01T09:26:13.787Z,49826.69
2022-12-01T09:28:40.836Z,49804.75
2022-12-01T09:31:09.864Z,49874.53
2022-12-01T09:33:36.676Z,49814.72
2022-12-01T09:36:05.792Z,49876.53
2022-12-01T09:38:34.492Z,49814.72
2022-12-01T09:41:07.136Z,49830.66
2022-12-01T09:43:41.433Z,49826.69
2022-12-01T09:46:16.023Z,49808.75
2022-12-01T09:48:47.960Z,49868.56
2022-12-01T09:51:22.689Z,49814.72
2022-12-01T09:53:53.406Z,49840.63
2022-12-01T09:56:32.304Z,49826.69
2022-12-01T09:59:02.902Z,49798.78
2022-12-01T10:01:42.980Z,49854.59
2022-12-01T10:04:38.180Z,49812.72
2022-12-01T10:07:37.299Z,49834.66
2022-12-01T10:10:38.248Z,49792.78
2022-12-01T10:13:26.550Z,49816.72
2022-12-01T10:16:12.516Z,49848.63
2022-12-01T10:19:01.736Z,49858.59
2022-12-01T10:21:34.131Z,49824.69
2022-12-01T10:24:06.373Z,49846.63
2022-12-01T10:27:00.694Z,49850.59
2022-12-01T10:29:47.329Z,49850.59
2022-12-01T10:32:23.080Z,49768.88
2022-12-01T10:34:49.748Z,49800.78
2022-12-01T10:37:28.545Z,49838.66
2022-12-01T10:39:57.190Z,49810.75
2022-12-01T10:42:37.659Z,49856.59
2022-12-01T10:45:07.676Z,49838.66
2022-12-01T10:47:34.316Z,49778.84
2022-12-01T10:50:05.318Z,49842.63
2022-12-01T10:52:32.045Z,49818.72
2022-12-01T10:54:59.590Z,49808.75
2022-12-01T10:57:29.622Z,49816.72
2022-12-01T11:00:01.068Z,49808.75
2022-12-01T11:02:29.689Z,49834.66
2022-12-01T11:05:02.802Z,49812.72
2022-12-01T11:07:42.929Z,49818.72
2022-12-01T11:10:12.380Z,49790.81
2022-12-01T11:12:39.830Z,49802.75
2022-12-01T11:15:07.861Z,49824.69
2022-12-01T11:17:43.242Z,49802.75
2022-12-01T11:20:37.507Z,49808.75
2022-12-01T11:23:26.406Z,49814.72
2022-12-01T11:26:23.676Z,49822.69
2022-12-01T11:28:54.733Z,49822.69
2022-12-01T11:31:25.256Z,49808.75
2022-12-01T11:33:56.405Z,49780.84
2022-12-01T11:36:31.694Z,49834.66
2022-12-01T11:39:01.500Z,49812.72
2022-12-01T11:41:40.788Z,49802.75
2022-12-01T11:47:25.105Z,49794.78
2022-12-01T11:49:58.087Z,49786.81
2022-12-01T11:52:24.645Z,49812.72
2022-12-01T11:55:18.813Z,49798.78
2022-12-01T11:57:48.221Z,49780.84
2022-12-01T12:00:17.098Z,49810.75
2022-12-01T12:03:14.741Z,49772.84
2022-12-01T12:05:45.565Z,49768.88
2022-12-01T12:08:35.643Z,49736.97
2022-12-01T12:11:26.238Z,49742.94
2022-12-01T12:14:19.982Z,49774.84
2022-12-01T12:17:15.109Z,49818.72
2022-12-01T12:20:07.564Z,49786.81
2022-12-01T12:22:55.763Z,49792.78
2022-12-01T12:25:25.392Z,49762.88
2022-12-01T12:28:34.330Z,49750.94
2022-12-01T12:31:25.509Z,49762.88
2022-12-01T12:34:25.438Z,49790.81
2022-12-01T12:37:05.929Z,49798.78
2022-12-01T12:39:51.359Z,49762.88
2022-12-01T12:42:21.029Z,49754.91
2022-12-01T12:45:13.473Z,49774.84
2022-12-01T12:47:45.761Z,49770.88
2022-12-01T12:50:32.602Z,49798.78
2022-12-01T12:53:10.168Z,49774.84
2022-12-01T12:55:42.753Z,49723.03
2022-12-01T12:58:25.986Z,49760.91
2022-12-01T13:01:12.352Z,49752.91
2022-12-01T13:04:04.454Z,49766.88
2022-12-01T13:06:39.132Z,49746.94
2022-12-01T13:09:14.963Z,49748.94
2022-12-01T13:11:51.712Z,49774.84
2022-12-01T13:14:42.476Z,49729.00
2022-12-01T13:17:20.978Z,49760.91
2022-12-01T13:19:48.572Z,49750.94
2022-12-01T13:22:18.883Z,49691.13
2022-12-01T13:24:45.548Z,49746.94
2022-12-01T13:27:23.791Z,49715.03
2022-12-01T13:29:53.570Z,49754.91
2022-12-01T13:32:40.378Z,49748.94
2022-12-01T13:35:20.809Z,49778.84
2022-12-01T13:37:48.210Z,49758.91
2022-12-01T13:40:29.187Z,49764.88
2022-12-01T13:43:18.544Z,49784.81
2022-12-01T13:45:46.057Z,49750.94
2022-12-01T13:48:45.320Z,49768.88
2022-12-01T13:51:12.042Z,49727.00
2022-12-01T13:53:52.289Z,49715.03
2022-12-01T13:56:18.861Z,49703.09
2022-12-01T13:58:51.343Z,49733.00
2022-12-01T14:01:21.492Z,49738.97
2022-12-01T14:04:11.773Z,49766.88
2022-12-01T14:06:49.223Z,49695.09
2022-12-01T14:09:44.012Z,49715.03
2022-12-01T14:12:31.512Z,49727.00
2022-12-01T14:15:03.585Z,49685.13
2022-12-01T14:17:34.018Z,49707.06
2022-12-01T14:20:17.621Z,49687.13
2022-12-01T14:22:46.743Z,49725.00
2022-12-01T14:25:22.734Z,49736.97
2022-12-01T14:27:53.386Z,49750.94
2022-12-01T14:30:41.963Z,49752.91
2022-12-01T14:33:39.446Z,49754.91
2022-12-01T14:36:26.230Z,49758.91
2022-12-01T14:39:06.203Z,49796.78
2022-12-01T14:41:49.403Z,49758.91
2022-12-01T14:44:34.679Z,49758.91
2022-12-01T14:47:10.354Z,49746.94
2022-12-01T14:49:42.897Z,49760.91
2022-12-01T14:52:35.818Z,49804.75
2022-12-01T14:55:13.593Z,49770.88
2022-12-01T14:57:42.697Z,49790.81
2022-12-01T15:00:15.747Z,49758.91
2022-12-01T15:02:54.161Z,49734.97
2022-12-01T15:05:23.963Z,49782.81
2022-12-01T15:07:58.843Z,49784.81
2022-12-01T15:10:37.708Z,49806.75
2022-12-01T15:13:39.273Z,49758.91
2022-12-01T15:16:15.053Z,49802.75
2022-12-01T15:18:42.131Z,49814.72
2022-12-01T15:21:26.146Z,49776.84
2022-12-01T15:24:06.362Z,49780.84
2022-12-01T15:26:36.325Z,49758.91
2022-12-01T15:29:12.013Z,49772.84
2022-12-01T15:31:39.081Z,49788.81
2022-12-01T15:34:06.366Z,49816.72
2022-12-01T15:36:33.106Z,49772.84
2022-12-01T15:39:06.744Z,49808.75
2022-12-01T15:41:35.430Z,49790.81
2022-12-01T15:44:03.660Z,49782.81
2022-12-01T15:46:34.328Z,49756.91
2022-12-01T15:49:40.426Z,49754.91
2022-12-01T15:52:10.514Z,49766.88
2022-12-01T15:54:38.613Z,49802.75
2022-12-01T15:57:06.711Z,49786.81
2022-12-01T15:59:36.558Z,49786.81
2022-12-01T16:02:30.054Z,49778.84
2022-12-01T16:05:25.996Z,49786.81
2022-12-01T16:10:41.211Z,49796.78
2022-12-01T16:13:38.682Z,49764.88
2022-12-01T16:16:23.695Z,49772.84
2022-12-01T16:18:57.955Z,49786.81
2022-12-01T16:21:26.273Z,49798.78
2022-12-01T16:24:01.247Z,49802.75
2022-12-01T16:26:29.083Z,49792.78
2022-12-01T16:28:56.485Z,49784.81
2022-12-01T16:31:26.130Z,49752.91
2022-12-01T16:34:18.481Z,49788.81
2022-12-01T16:36:50.569Z,49750.94
2022-12-01T16:39:17.778Z,49762.88
2022-12-01T16:41:44.971Z,49802.75
2022-12-01T16:44:27.932Z,49790.81
2022-12-01T16:46:55.818Z,49774.84
2022-12-01T16:49:22.794Z,49776.84
2022-12-01T16:51:56.036Z,49792.78
2022-12-01T16:54:23.375Z,49766.88
2022-12-01T16:56:50.005Z,49734.97
2022-12-01T16:59:16.600Z,49778.84
2022-12-01T17:01:43.335Z,49810.75
2022-12-01T17:04:09.958Z,49786.81
2022-12-01T17:06:38.374Z,49746.94
2022-12-01T17:09:05.771Z,49826.69
2022-12-01T17:11:32.603Z,49790.81
2022-12-01T17:13:59.220Z,49798.78
2022-12-01T17:16:25.940Z,49774.84
2022-12-01T17:18:52.603Z,49794.78
2022-12-01T17:21:19.376Z,49770.88
2022-12-01T17:23:46.140Z,49742.94
2022-12-01T17:26:15.859Z,49764.88
2022-12-01T17:28:42.730Z,49746.94
2022-12-01T17:31:09.800Z,49776.84
2022-12-01T17:33:37.221Z,49810.75
2022-12-01T17:36:07.748Z,49780.84
2022-12-01T17:38:36.458Z,49778.84
2022-12-01T17:41:10.299Z,49754.91
2022-12-01T17:43:38.581Z,49802.75
2022-12-01T17:46:07.928Z,49820.69
2022-12-01T17:48:40.157Z,49748.94
2022-12-01T17:51:08.897Z,49802.75
2022-12-01T17:53:36.955Z,49794.78
2022-12-01T17:56:08.167Z,49792.78
2022-12-01T17:58:35.729Z,49800.78
2022-12-01T18:01:03.003Z,49788.81
2022-12-01T18:03:30.599Z,49784.81
2022-12-01T18:06:01.764Z,49782.81
2022-12-01T18:08:30.369Z,49806.75
2022-12-01T18:11:02.108Z,49798.78
2022-12-01T18:13:29.640Z,49806.75
2022-12-01T18:15:56.335Z,49784.81
2022-12-01T18:18:23.046Z,49784.81
2022-12-01T18:20:49.646Z,49796.78
2022-12-01T18:23:16.268Z,49776.84
2022-12-01T18:25:42.844Z,49810.75
2022-12-01T18:28:11.122Z,49834.66
2022-12-01T18:30:38.905Z,49780.84
2022-12-01T18:33:10.904Z,49802.75
2022-12-01T18:35:43.279Z,49788.81
2022-12-01T18:38:10.224Z,49790.81
2022-12-01T18:40:37.990Z,49782.81
2022-12-01T18:43:05.233Z,49788.81
2022-12-01T18:45:32.062Z,49798.78
2022-12-01T18:47:58.713Z,49778.84
2022-12-01T18:50:25.330Z,49776.84
2022-12-01T18:52:52.004Z,49772.84
2022-12-01T18:55:18.674Z,49792.78
2022-12-01T18:57:45.396Z,49778.84
2022-12-01T19:00:12.701Z,49808.75
2022-12-01T19:02:39.308Z,49780.84
2022-12-01T19:05:06.418Z,49810.75
2022-12-01T19:07:33.066Z,49776.84
2022-12-01T19:09:59.784Z,49766.88
2022-12-01T19:12:26.443Z,49796.78
2022-12-01T19:14:54.212Z,49790.81
2022-12-01T19:17:21.467Z,49792.78
2022-12-01T19:19:48.085Z,49782.81
2022-12-01T19:22:15.853Z,49814.72
2022-12-01T19:24:47.139Z,49792.78
2022-12-01T19:27:17.097Z,49746.94
2022-12-01T19:29:43.792Z,49766.88
2022-12-01T19:32:10.993Z,49766.88
2022-12-01T19:34:37.771Z,49754.91
2022-12-01T19:37:05.267Z,49794.78
2022-12-01T19:39:32.698Z,49778.84
2022-12-01T19:41:59.297Z,49834.66
2022-12-01T19:44:25.965Z,49806.75
2022-12-01T19:46:53.327Z,49806.75
2022-12-01T19:49:19.982Z,49798.78
2022-12-01T19:51:47.004Z,49804.75
2022-12-01T19:54:20.078Z,49748.94
2022-12-01T19:56:46.792Z,49778.84
2022-12-01T19:59:14.877Z,49734.97
2022-12-01T20:01:41.691Z,49780.84
2022-12-01T20:04:08.977Z,49764.88
2022-12-01T20:06:37.167Z,49792.78
2022-12-01T20:09:06.657Z,49812.72
2022-12-01T20:11:35.567Z,49816.72
2022-12-01T20:14:03.279Z,49802.75
2022-12-01T20:16:30.782Z,49762.88
2022-12-01T20:19:00.772Z,49774.84
2022-12-01T20:21:30.721Z,49754.91
2022-12-01T20:23:59.732Z,49832.66
2022-12-01T20:26:30.724Z,49760.91
2022-12-01T20:29:04.268Z,49822.69
2022-12-01T20:31:33.626Z,49798.78
2022-12-01T20:34:04.852Z,49806.75
2022-12-01T20:36:32.560Z,49782.81
2022-12-01T20:38:59.403Z,49826.69
2022-12-01T20:41:26.304Z,49758.91
2022-12-01T20:43:53.079Z,49782.81
2022-12-01T20:46:19.989Z,49756.91
2022-12-01T20:48:46.704Z,49790.81
2022-12-01T20:51:14.785Z,49762.88
2022-12-01T20:53:54.510Z,49740.97
2022-12-01T20:56:28.665Z,49836.66
2022-12-01T20:58:55.422Z,49770.88
2022-12-01T21:01:25.076Z,49750.94
2022-12-01T21:03:52.773Z,49774.84
2022-12-01T21:06:20.893Z,49796.78
2022-12-01T21:08:49.616Z,49814.72
2022-12-01T21:11:41.490Z,49772.84
2022-12-01T21:14:17.956Z,49774.84
2022-12-01T21:16:48.327Z,49794.78
2022-12-01T21:19:22.941Z,49784.81
2022-12-01T21:21:49.623Z,49804.75
2022-12-01T21:24:19.590Z,49762.88
2022-12-01T21:26:58.705Z,49790.81
2022-12-01T21:29:28.366Z,49788.81
2022-12-01T21:32:10.022Z,49778.84
2022-12-01T21:34:36.727Z,49782.81
2022-12-01T21:37:10.733Z,49824.69
2022-12-01T21:39:38.521Z,49770.88
2022-12-01T21:42:18.309Z,49800.78
2022-12-01T21:44:45.579Z,49792.78
2022-12-01T21:47:23.746Z,49780.84
2022-12-01T21:49:53.108Z,49786.81
2022-12-01T21:52:22.723Z,49766.88
2022-12-01T21:54:50.159Z,49800.78
2022-12-01T21:57:43.105Z,49800.78
2022-12-01T22:00:28.214Z,49770.88
2022-12-01T22:03:24.760Z,49792.78
2022-12-01T22:06:27.724Z,49780.84
2022-12-01T22:08:46.471Z,49772.84
2022-12-01T22:11:21.996Z,49808.75
2022-12-01T22:13:59.262Z,49778.84
2022-12-01T22:16:30.511Z,49778.84
2022-12-01T22:18:59.425Z,49764.88
2022-12-01T22:21:31.299Z,49808.75
2022-12-01T22:24:09.802Z,49782.81
2022-12-01T22:26:43.251Z,49804.75
2022-12-01T22:29:28.407Z,49834.66
2022-12-01T22:32:01.216Z,49796.78
2022-12-01T22:34:28.036Z,49820.69
2022-12-01T22:36:55.033Z,49800.78
2022-12-01T22:39:34.109Z,49814.72
2022-12-01T22:42:07.783Z,49766.88
2022-12-01T22:44:34.443Z,49786.81
2022-12-01T22:47:03.105Z,49774.84
2022-12-01T22:49:30.844Z,49798.78
2022-12-01T22:52:05.697Z,49794.78
2022-12-01T22:54:43.574Z,49766.88
2022-12-01T22:57:19.022Z,49802.75
2022-12-01T22:59:47.755Z,49790.81
2022-12-01T23:02:29.469Z,49810.75
2022-12-01T23:05:01.381Z,49812.72
2022-12-01T23:07:31.894Z,49806.75
2022-12-01T23:10:18.708Z,49834.66
2022-12-01T23:12:47.704Z,49820.69
2022-12-01T23:15:47.877Z,49822.69
2022-12-01T23:18:16.063Z,49794.78
2022-12-01T23:20:46.117Z,49788.81
2022-12-01T23:23:16.733Z,49814.72
2022-12-01T23:25:44.682Z,49806.75
2022-12-01T23:28:13.004Z,49778.84
2022-12-01T23:30:42.180Z,49782.81
2022-12-01T23:33:08.772Z,49774.84
2022-12-01T23:35:41.359Z,49802.75
2022-12-01T23:38:18.057Z,49752.91
2022-12-01T23:40:45.347Z,49826.69
2022-12-01T23:43:18.775Z,49778.84
2022-12-01T23:45:45.699Z,49796.78
2022-12-01T23:48:20.664Z,49798.78
2022-12-01T23:50:50.122Z,49786.81
2022-12-01T23:53:29.154Z,49782.81
2022-12-01T23:55:59.060Z,49790.81
2022-12-01T23:58:26.408Z,49788.81
